sensor_id;sensor_type;location;lat;lon;timestamp;P1;durP1;ratioP1;P2;durP2;ratioP2
9948;SDS011;5013;51.840;8.276;2022-08-19T00:01:43;7.83;;;5.47;;
9948;SDS011;5013;51.840;8.276;2022-08-19T00:04:12;9.07;;;7.03;;
9948;SDS011;5013;51.840;8.276;2022-08-19T00:06:40;8.97;;;6.17;;
9948;SDS011;5013;51.840;8.276;2022-08-19T00:09:08;9.70;;;6.33;;
9948;SDS011;5013;51.840;8.276;2022-08-19T00:11:36;7.30;;;5.87;;
9948;SDS011;5013;51.840;8.276;2022-08-19T00:14:02;7.80;;;5.70;;
9948;SDS011;5013;51.840;8.276;2022-08-19T00:16:30;8.77;;;7.00;;
9948;SDS011;5013;51.840;8.276;2022-08-19T00:18:55;8.73;;;6.47;;
9948;SDS011;5013;51.840;8.276;2022-08-19T00:21:22;6.80;;;6.17;;
9948;SDS011;5013;51.840;8.276;2022-08-19T00:23:49;11.73;;;6.50;;
9948;SDS011;5013;51.840;8.276;2022-08-19T00:26:15;7.90;;;6.50;;
9948;SDS011;5013;51.840;8.276;2022-08-19T00:28:40;10.87;;;6.20;;
9948;SDS011;5013;51.840;8.276;2022-08-19T00:31:07;7.93;;;6.53;;
9948;SDS011;5013;51.840;8.276;2022-08-19T00:33:33;6.70;;;6.10;;
9948;SDS011;5013;51.840;8.276;2022-08-19T00:36:05;7.83;;;6.10;;
9948;SDS011;5013;51.840;8.276;2022-08-19T00:38:33;11.87;;;7.07;;
9948;SDS011;5013;51.840;8.276;2022-08-19T00:40:59;12.37;;;7.20;;
9948;SDS011;5013;51.840;8.276;2022-08-19T00:43:26;10.37;;;6.47;;
9948;SDS011;5013;51.840;8.276;2022-08-19T00:45:52;10.50;;;7.00;;
9948;SDS011;5013;51.840;8.276;2022-08-19T00:48:19;7.83;;;6.90;;
9948;SDS011;5013;51.840;8.276;2022-08-19T00:50:45;10.97;;;7.03;;
9948;SDS011;5013;51.840;8.276;2022-08-19T00:53:14;8.40;;;6.60;;
9948;SDS011;5013;51.840;8.276;2022-08-19T00:55:47;9.43;;;7.77;;
9948;SDS011;5013;51.840;8.276;2022-08-19T00:58:15;22.47;;;7.47;;
9948;SDS011;5013;51.840;8.276;2022-08-19T01:00:44;9.93;;;7.07;;
9948;SDS011;5013;51.840;8.276;2022-08-19T01:03:11;9.97;;;7.03;;
9948;SDS011;5013;51.840;8.276;2022-08-19T01:05:41;10.73;;;7.27;;
9948;SDS011;5013;51.840;8.276;2022-08-19T01:08:08;7.50;;;6.47;;
9948;SDS011;5013;51.840;8.276;2022-08-19T01:10:39;7.77;;;7.00;;
9948;SDS011;5013;51.840;8.276;2022-08-19T01:13:08;10.23;;;7.87;;
9948;SDS011;5013;51.840;8.276;2022-08-19T01:15:38;8.20;;;7.40;;
9948;SDS011;5013;51.840;8.276;2022-08-19T01:18:10;11.40;;;7.97;;
9948;SDS011;5013;51.840;8.276;2022-08-19T01:20:38;8.00;;;7.20;;
9948;SDS011;5013;51.840;8.276;2022-08-19T01:23:05;10.80;;;7.07;;
9948;SDS011;5013;51.840;8.276;2022-08-19T01:25:32;8.07;;;7.27;;
9948;SDS011;5013;51.840;8.276;2022-08-19T01:28:04;8.13;;;7.20;;
9948;SDS011;5013;51.840;8.276;2022-08-19T01:30:31;7.30;;;6.60;;
9948;SDS011;5013;51.840;8.276;2022-08-19T01:32:58;9.00;;;7.73;;
9948;SDS011;5013;51.840;8.276;2022-08-19T01:35:25;9.57;;;8.63;;
9948;SDS011;5013;51.840;8.276;2022-08-19T01:37:54;13.73;;;8.70;;
9948;SDS011;5013;51.840;8.276;2022-08-19T01:40:21;12.07;;;10.33;;
9948;SDS011;5013;51.840;8.276;2022-08-19T01:42:50;10.27;;;9.00;;
9948;SDS011;5013;51.840;8.276;2022-08-19T01:45:17;10.63;;;9.57;;
9948;SDS011;5013;51.840;8.276;2022-08-19T01:47:44;13.33;;;10.47;;
9948;SDS011;5013;51.840;8.276;2022-08-19T01:50:10;14.47;;;10.17;;
9948;SDS011;5013;51.840;8.276;2022-08-19T01:52:37;10.70;;;9.67;;
9948;SDS011;5013;51.840;8.276;2022-08-19T01:55:05;13.40;;;9.13;;
9948;SDS011;5013;51.840;8.276;2022-08-19T01:57:33;11.03;;;10.00;;
9948;SDS011;5013;51.840;8.276;2022-08-19T01:59:59;11.30;;;9.90;;
9948;SDS011;5013;51.840;8.276;2022-08-19T02:02:28;17.60;;;10.60;;
9948;SDS011;5013;51.840;8.276;2022-08-19T02:04:53;10.67;;;9.73;;
9948;SDS011;5013;51.840;8.276;2022-08-19T02:07:20;12.97;;;10.47;;
9948;SDS011;5013;51.840;8.276;2022-08-19T02:09:46;11.10;;;9.67;;
9948;SDS011;5013;51.840;8.276;2022-08-19T02:12:13;11.60;;;10.07;;
9948;SDS011;5013;51.840;8.276;2022-08-19T02:14:39;15.23;;;12.00;;
9948;SDS011;5013;51.840;8.276;2022-08-19T02:17:05;13.83;;;11.97;;
9948;SDS011;5013;51.840;8.276;2022-08-19T02:19:30;12.13;;;10.87;;
9948;SDS011;5013;51.840;8.276;2022-08-19T02:21:57;15.57;;;12.77;;
9948;SDS011;5013;51.840;8.276;2022-08-19T02:24:23;14.13;;;12.53;;
9948;SDS011;5013;51.840;8.276;2022-08-19T02:26:49;12.60;;;11.40;;
9948;SDS011;5013;51.840;8.276;2022-08-19T02:29:16;16.47;;;12.53;;
9948;SDS011;5013;51.840;8.276;2022-08-19T02:31:41;13.63;;;12.23;;
9948;SDS011;5013;51.840;8.276;2022-08-19T02:34:07;16.80;;;12.47;;
9948;SDS011;5013;51.840;8.276;2022-08-19T02:36:33;12.53;;;11.53;;
9948;SDS011;5013;51.840;8.276;2022-08-19T02:38:59;15.33;;;13.87;;
9948;SDS011;5013;51.840;8.276;2022-08-19T02:41:25;16.40;;;14.10;;
9948;SDS011;5013;51.840;8.276;2022-08-19T02:43:53;16.67;;;14.97;;
9948;SDS011;5013;51.840;8.276;2022-08-19T02:46:22;18.33;;;14.10;;
9948;SDS011;5013;51.840;8.276;2022-08-19T02:48:56;17.20;;;13.17;;
9948;SDS011;5013;51.840;8.276;2022-08-19T02:51:28;14.97;;;13.27;;
9948;SDS011;5013;51.840;8.276;2022-08-19T02:53:56;14.53;;;13.07;;
9948;SDS011;5013;51.840;8.276;2022-08-19T02:56:23;17.17;;;13.50;;
9948;SDS011;5013;51.840;8.276;2022-08-19T02:58:50;15.87;;;12.47;;
9948;SDS011;5013;51.840;8.276;2022-08-19T03:01:23;14.00;;;12.50;;
9948;SDS011;5013;51.840;8.276;2022-08-19T03:03:55;12.83;;;11.53;;
9948;SDS011;5013;51.840;8.276;2022-08-19T03:06:22;17.20;;;13.43;;
9948;SDS011;5013;51.840;8.276;2022-08-19T03:08:48;12.93;;;11.70;;
9948;SDS011;5013;51.840;8.276;2022-08-19T03:11:20;13.27;;;11.97;;
9948;SDS011;5013;51.840;8.276;2022-08-19T03:13:50;17.27;;;13.67;;
9948;SDS011;5013;51.840;8.276;2022-08-19T03:16:16;15.70;;;12.23;;
9948;SDS011;5013;51.840;8.276;2022-08-19T03:18:43;15.63;;;14.17;;
9948;SDS011;5013;51.840;8.276;2022-08-19T03:21:09;18.33;;;14.40;;
9948;SDS011;5013;51.840;8.276;2022-08-19T03:23:39;17.77;;;14.63;;
9948;SDS011;5013;51.840;8.276;2022-08-19T03:26:05;16.33;;;14.60;;
9948;SDS011;5013;51.840;8.276;2022-08-19T03:28:31;14.60;;;13.20;;
9948;SDS011;5013;51.840;8.276;2022-08-19T03:30:58;17.07;;;14.33;;
9948;SDS011;5013;51.840;8.276;2022-08-19T03:34:04;16.33;;;14.73;;
9948;SDS011;5013;51.840;8.276;2022-08-19T03:36:30;14.93;;;13.27;;
9948;SDS011;5013;51.840;8.276;2022-08-19T03:38:58;13.40;;;12.20;;
9948;SDS011;5013;51.840;8.276;2022-08-19T03:41:26;15.37;;;14.03;;
9948;SDS011;5013;51.840;8.276;2022-08-19T03:43:54;15.53;;;14.03;;
9948;SDS011;5013;51.840;8.276;2022-08-19T03:46:37;18.73;;;16.80;;
9948;SDS011;5013;51.840;8.276;2022-08-19T03:49:04;14.57;;;13.00;;
9948;SDS011;5013;51.840;8.276;2022-08-19T03:51:36;17.73;;;15.10;;
9948;SDS011;5013;51.840;8.276;2022-08-19T03:54:05;18.77;;;14.93;;
9948;SDS011;5013;51.840;8.276;2022-08-19T03:56:33;22.70;;;17.37;;
9948;SDS011;5013;51.840;8.276;2022-08-19T03:59:00;17.47;;;15.57;;
9948;SDS011;5013;51.840;8.276;2022-08-19T04:01:26;18.00;;;15.93;;
9948;SDS011;5013;51.840;8.276;2022-08-19T04:03:53;16.67;;;15.07;;
9948;SDS011;5013;51.840;8.276;2022-08-19T04:06:25;18.53;;;16.60;;
9948;SDS011;5013;51.840;8.276;2022-08-19T04:08:54;17.47;;;15.77;;
9948;SDS011;5013;51.840;8.276;2022-08-19T04:11:22;23.50;;;18.13;;
9948;SDS011;5013;51.840;8.276;2022-08-19T04:13:50;22.13;;;18.23;;
9948;SDS011;5013;51.840;8.276;2022-08-19T04:16:17;22.43;;;19.53;;
9948;SDS011;5013;51.840;8.276;2022-08-19T04:18:45;21.77;;;19.57;;
9948;SDS011;5013;51.840;8.276;2022-08-19T04:21:16;22.53;;;18.40;;
9948;SDS011;5013;51.840;8.276;2022-08-19T04:23:43;19.50;;;17.47;;
9948;SDS011;5013;51.840;8.276;2022-08-19T04:26:17;20.80;;;18.73;;
9948;SDS011;5013;51.840;8.276;2022-08-19T04:28:45;20.17;;;18.20;;
9948;SDS011;5013;51.840;8.276;2022-08-19T04:31:15;22.87;;;20.03;;
9948;SDS011;5013;51.840;8.276;2022-08-19T04:33:43;22.23;;;19.00;;
9948;SDS011;5013;51.840;8.276;2022-08-19T04:36:15;22.63;;;20.40;;
9948;SDS011;5013;51.840;8.276;2022-08-19T04:38:48;25.07;;;19.97;;
9948;SDS011;5013;51.840;8.276;2022-08-19T04:41:17;22.10;;;19.03;;
9948;SDS011;5013;51.840;8.276;2022-08-19T04:44:02;23.23;;;17.20;;
9948;SDS011;5013;51.840;8.276;2022-08-19T04:46:27;19.20;;;17.43;;
9948;SDS011;5013;51.840;8.276;2022-08-19T04:48:55;17.23;;;15.53;;
9948;SDS011;5013;51.840;8.276;2022-08-19T04:51:22;19.10;;;17.20;;
9948;SDS011;5013;51.840;8.276;2022-08-19T04:53:48;17.57;;;15.63;;
9948;SDS011;5013;51.840;8.276;2022-08-19T04:56:14;17.23;;;15.53;;
9948;SDS011;5013;51.840;8.276;2022-08-19T04:58:42;15.43;;;13.93;;
9948;SDS011;5013;51.840;8.276;2022-08-19T05:01:11;16.27;;;14.57;;
9948;SDS011;5013;51.840;8.276;2022-08-19T05:03:45;17.83;;;15.53;;
9948;SDS011;5013;51.840;8.276;2022-08-19T05:06:12;16.80;;;15.00;;
9948;SDS011;5013;51.840;8.276;2022-08-19T05:08:39;21.17;;;18.97;;
9948;SDS011;5013;51.840;8.276;2022-08-19T05:11:12;20.53;;;16.53;;
9948;SDS011;5013;51.840;8.276;2022-08-19T05:13:43;20.23;;;18.10;;
9948;SDS011;5013;51.840;8.276;2022-08-19T05:16:10;22.93;;;17.10;;
9948;SDS011;5013;51.840;8.276;2022-08-19T05:18:36;21.20;;;18.17;;
9948;SDS011;5013;51.840;8.276;2022-08-19T05:21:21;18.47;;;16.67;;
9948;SDS011;5013;51.840;8.276;2022-08-19T05:24:06;18.83;;;16.90;;
9948;SDS011;5013;51.840;8.276;2022-08-19T05:26:36;18.00;;;14.17;;
9948;SDS011;5013;51.840;8.276;2022-08-19T05:29:02;18.83;;;16.87;;
9948;SDS011;5013;51.840;8.276;2022-08-19T05:31:29;15.67;;;14.13;;
9948;SDS011;5013;51.840;8.276;2022-08-19T05:33:55;15.17;;;13.63;;
9948;SDS011;5013;51.840;8.276;2022-08-19T05:36:24;20.63;;;17.27;;
9948;SDS011;5013;51.840;8.276;2022-08-19T05:38:51;21.40;;;18.33;;
9948;SDS011;5013;51.840;8.276;2022-08-19T05:41:18;21.77;;;18.80;;
9948;SDS011;5013;51.840;8.276;2022-08-19T05:43:45;18.57;;;16.67;;
9948;SDS011;5013;51.840;8.276;2022-08-19T05:46:16;19.37;;;17.47;;
9948;SDS011;5013;51.840;8.276;2022-08-19T05:48:43;25.53;;;18.43;;
9948;SDS011;5013;51.840;8.276;2022-08-19T05:51:09;21.27;;;19.07;;
9948;SDS011;5013;51.840;8.276;2022-08-19T05:53:36;20.83;;;18.60;;
9948;SDS011;5013;51.840;8.276;2022-08-19T05:56:10;22.27;;;19.23;;
9948;SDS011;5013;51.840;8.276;2022-08-19T05:58:40;24.80;;;21.00;;
9948;SDS011;5013;51.840;8.276;2022-08-19T06:01:12;21.87;;;19.77;;
9948;SDS011;5013;51.840;8.276;2022-08-19T06:03:39;24.67;;;21.17;;
9948;SDS011;5013;51.840;8.276;2022-08-19T06:06:06;23.30;;;20.60;;
9948;SDS011;5013;51.840;8.276;2022-08-19T06:08:34;23.30;;;20.93;;
9948;SDS011;5013;51.840;8.276;2022-08-19T06:11:19;24.77;;;20.83;;
9948;SDS011;5013;51.840;8.276;2022-08-19T06:13:51;23.67;;;19.63;;
9948;SDS011;5013;51.840;8.276;2022-08-19T06:16:21;24.30;;;21.53;;
9948;SDS011;5013;51.840;8.276;2022-08-19T06:18:54;26.77;;;20.97;;
9948;SDS011;5013;51.840;8.276;2022-08-19T06:21:22;21.23;;;18.67;;
9948;SDS011;5013;51.840;8.276;2022-08-19T06:23:50;20.63;;;17.40;;
9948;SDS011;5013;51.840;8.276;2022-08-19T06:26:17;22.00;;;18.73;;
9948;SDS011;5013;51.840;8.276;2022-08-19T06:28:44;20.80;;;18.70;;
9948;SDS011;5013;51.840;8.276;2022-08-19T06:31:23;18.73;;;16.57;;
9948;SDS011;5013;51.840;8.276;2022-08-19T06:33:50;19.03;;;17.13;;
9948;SDS011;5013;51.840;8.276;2022-08-19T06:36:26;22.13;;;16.63;;
9948;SDS011;5013;51.840;8.276;2022-08-19T06:38:58;18.80;;;16.17;;
9948;SDS011;5013;51.840;8.276;2022-08-19T06:41:29;22.97;;;14.77;;
9948;SDS011;5013;51.840;8.276;2022-08-19T06:43:56;16.50;;;14.27;;
9948;SDS011;5013;51.840;8.276;2022-08-19T06:46:22;20.00;;;15.93;;
9948;SDS011;5013;51.840;8.276;2022-08-19T06:48:48;19.47;;;16.27;;
9948;SDS011;5013;51.840;8.276;2022-08-19T06:51:15;15.87;;;13.00;;
9948;SDS011;5013;51.840;8.276;2022-08-19T06:53:44;21.60;;;17.27;;
9948;SDS011;5013;51.840;8.276;2022-08-19T06:56:14;14.77;;;13.13;;
9948;SDS011;5013;51.840;8.276;2022-08-19T06:58:40;15.33;;;13.43;;
9948;SDS011;5013;51.840;8.276;2022-08-19T07:01:06;13.50;;;12.10;;
9948;SDS011;5013;51.840;8.276;2022-08-19T07:03:33;15.63;;;12.67;;
9948;SDS011;5013;51.840;8.276;2022-08-19T07:06:06;12.87;;;11.57;;
9948;SDS011;5013;51.840;8.276;2022-08-19T07:08:37;16.57;;;13.10;;
9948;SDS011;5013;51.840;8.276;2022-08-19T07:11:08;15.97;;;14.37;;
9948;SDS011;5013;51.840;8.276;2022-08-19T07:13:35;17.37;;;14.00;;
9948;SDS011;5013;51.840;8.276;2022-08-19T07:16:05;15.77;;;14.13;;
9948;SDS011;5013;51.840;8.276;2022-08-19T07:18:32;11.77;;;10.43;;
9948;SDS011;5013;51.840;8.276;2022-08-19T07:21:03;16.93;;;12.67;;
9948;SDS011;5013;51.840;8.276;2022-08-19T07:23:31;11.67;;;10.50;;
9948;SDS011;5013;51.840;8.276;2022-08-19T07:25:57;15.43;;;11.87;;
9948;SDS011;5013;51.840;8.276;2022-08-19T07:28:22;13.83;;;10.27;;
9948;SDS011;5013;51.840;8.276;2022-08-19T07:30:48;12.73;;;11.00;;
9948;SDS011;5013;51.840;8.276;2022-08-19T07:33:15;11.53;;;10.33;;
9948;SDS011;5013;51.840;8.276;2022-08-19T07:35:43;12.47;;;10.03;;
9948;SDS011;5013;51.840;8.276;2022-08-19T07:38:08;10.60;;;9.50;;
9948;SDS011;5013;51.840;8.276;2022-08-19T07:40:35;12.20;;;10.73;;
9948;SDS011;5013;51.840;8.276;2022-08-19T07:43:00;16.30;;;12.13;;
9948;SDS011;5013;51.840;8.276;2022-08-19T07:45:26;13.67;;;10.43;;
9948;SDS011;5013;51.840;8.276;2022-08-19T07:47:53;13.27;;;10.20;;
9948;SDS011;5013;51.840;8.276;2022-08-19T07:50:19;14.17;;;10.87;;
9948;SDS011;5013;51.840;8.276;2022-08-19T07:52:46;15.20;;;10.77;;
9948;SDS011;5013;51.840;8.276;2022-08-19T07:55:14;11.63;;;10.43;;
9948;SDS011;5013;51.840;8.276;2022-08-19T07:57:41;12.47;;;10.30;;
9948;SDS011;5013;51.840;8.276;2022-08-19T08:00:06;15.17;;;11.60;;
9948;SDS011;5013;51.840;8.276;2022-08-19T08:02:32;13.90;;;10.13;;
9948;SDS011;5013;51.840;8.276;2022-08-19T08:04:58;10.67;;;8.83;;
9948;SDS011;5013;51.840;8.276;2022-08-19T08:07:42;10.30;;;9.37;;
9948;SDS011;5013;51.840;8.276;2022-08-19T08:10:26;13.85;;;8.63;;
9948;SDS011;5013;51.840;8.276;2022-08-19T08:12:52;10.77;;;7.70;;
9948;SDS011;5013;51.840;8.276;2022-08-19T08:15:20;8.40;;;7.13;;
9948;SDS011;5013;51.840;8.276;2022-08-19T08:17:45;12.85;;;8.35;;
9948;SDS011;5013;51.840;8.276;2022-08-19T08:20:12;8.90;;;8.07;;
9948;SDS011;5013;51.840;8.276;2022-08-19T08:22:42;11.40;;;7.25;;
9948;SDS011;5013;51.840;8.276;2022-08-19T08:25:27;8.02;;;6.93;;
9948;SDS011;5013;51.840;8.276;2022-08-19T08:27:53;8.27;;;6.70;;
9948;SDS011;5013;51.840;8.276;2022-08-19T08:30:20;13.25;;;7.43;;
9948;SDS011;5013;51.840;8.276;2022-08-19T08:32:49;7.13;;;6.43;;
9948;SDS011;5013;51.840;8.276;2022-08-19T08:35:17;6.65;;;6.03;;
9948;SDS011;5013;51.840;8.276;2022-08-19T08:37:45;6.82;;;6.20;;
9948;SDS011;5013;51.840;8.276;2022-08-19T08:40:19;7.07;;;5.78;;
9948;SDS011;5013;51.840;8.276;2022-08-19T08:46:05;6.32;;;5.10;;
9948;SDS011;5013;51.840;8.276;2022-08-19T08:51:25;6.70;;;6.10;;
9948;SDS011;5013;51.840;8.276;2022-08-19T08:54:07;6.70;;;5.88;;
9948;SDS011;5013;51.840;8.276;2022-08-19T08:56:43;6.53;;;5.40;;
9948;SDS011;5013;51.840;8.276;2022-08-19T08:59:12;7.35;;;6.60;;
9948;SDS011;5013;51.840;8.276;2022-08-19T09:01:45;6.05;;;5.47;;
9948;SDS011;5013;51.840;8.276;2022-08-19T09:04:11;9.82;;;6.68;;
9948;SDS011;5013;51.840;8.276;2022-08-19T09:09:34;6.13;;;5.55;;
9948;SDS011;5013;51.840;8.276;2022-08-19T09:15:05;4.85;;;4.45;;
9948;SDS011;5013;51.840;8.276;2022-08-19T09:17:34;7.05;;;4.75;;
9948;SDS011;5013;51.840;8.276;2022-08-19T09:22:32;6.45;;;5.85;;
9948;SDS011;5013;51.840;8.276;2022-08-19T09:24:58;10.55;;;5.20;;
9948;SDS011;5013;51.840;8.276;2022-08-19T09:27:25;6.55;;;5.80;;
9948;SDS011;5013;51.840;8.276;2022-08-19T09:29:52;5.25;;;4.40;;
9948;SDS011;5013;51.840;8.276;2022-08-19T09:32:18;5.00;;;4.55;;
9948;SDS011;5013;51.840;8.276;2022-08-19T09:34:45;4.55;;;4.18;;
9948;SDS011;5013;51.840;8.276;2022-08-19T09:37:10;5.82;;;3.85;;
9948;SDS011;5013;51.840;8.276;2022-08-19T09:39:37;9.02;;;4.85;;
9948;SDS011;5013;51.840;8.276;2022-08-19T09:42:05;4.93;;;4.03;;
9948;SDS011;5013;51.840;8.276;2022-08-19T09:44:36;4.72;;;4.28;;
9948;SDS011;5013;51.840;8.276;2022-08-19T09:47:05;5.22;;;3.97;;
9948;SDS011;5013;51.840;8.276;2022-08-19T09:49:32;5.00;;;3.75;;
9948;SDS011;5013;51.840;8.276;2022-08-19T09:51:58;7.32;;;4.70;;
9948;SDS011;5013;51.840;8.276;2022-08-19T09:54:25;5.82;;;3.55;;
9948;SDS011;5013;51.840;8.276;2022-08-19T09:56:52;8.55;;;4.35;;
9948;SDS011;5013;51.840;8.276;2022-08-19T09:59:22;4.43;;;4.03;;
9948;SDS011;5013;51.840;8.276;2022-08-19T10:01:47;4.97;;;4.43;;
9948;SDS011;5013;51.840;8.276;2022-08-19T10:04:13;6.30;;;4.00;;
9948;SDS011;5013;51.840;8.276;2022-08-19T10:06:39;5.97;;;3.42;;
9948;SDS011;5013;51.840;8.276;2022-08-19T10:09:06;5.03;;;3.95;;
9948;SDS011;5013;51.840;8.276;2022-08-19T10:11:34;4.45;;;3.90;;
9948;SDS011;5013;51.840;8.276;2022-08-19T10:14:01;3.60;;;3.33;;
9948;SDS011;5013;51.840;8.276;2022-08-19T10:16:27;3.90;;;3.60;;
9948;SDS011;5013;51.840;8.276;2022-08-19T10:18:54;4.22;;;3.38;;
9948;SDS011;5013;51.840;8.276;2022-08-19T10:21:24;5.13;;;4.10;;
9948;SDS011;5013;51.840;8.276;2022-08-19T10:23:54;4.95;;;4.47;;
9948;SDS011;5013;51.840;8.276;2022-08-19T10:26:23;5.53;;;4.70;;
9948;SDS011;5013;51.840;8.276;2022-08-19T10:28:50;4.47;;;4.18;;
9948;SDS011;5013;51.840;8.276;2022-08-19T10:31:37;4.68;;;4.10;;
9948;SDS011;5013;51.840;8.276;2022-08-19T10:34:02;4.10;;;3.80;;
9948;SDS011;5013;51.840;8.276;2022-08-19T10:36:30;5.57;;;3.78;;
9948;SDS011;5013;51.840;8.276;2022-08-19T10:39:01;4.05;;;3.40;;
9948;SDS011;5013;51.840;8.276;2022-08-19T10:41:31;6.05;;;4.50;;
9948;SDS011;5013;51.840;8.276;2022-08-19T10:44:00;3.95;;;3.63;;
9948;SDS011;5013;51.840;8.276;2022-08-19T10:46:27;4.50;;;4.10;;
9948;SDS011;5013;51.840;8.276;2022-08-19T10:48:57;13.63;;;5.05;;
9948;SDS011;5013;51.840;8.276;2022-08-19T10:51:23;4.03;;;3.80;;
9948;SDS011;5013;51.840;8.276;2022-08-19T10:54:09;5.05;;;4.28;;
9948;SDS011;5013;51.840;8.276;2022-08-19T10:56:35;5.07;;;4.68;;
9948;SDS011;5013;51.840;8.276;2022-08-19T10:59:31;4.68;;;4.20;;
9948;SDS011;5013;51.840;8.276;2022-08-19T11:02:00;4.45;;;4.15;;
9948;SDS011;5013;51.840;8.276;2022-08-19T11:04:26;5.22;;;4.03;;
9948;SDS011;5013;51.840;8.276;2022-08-19T11:06:52;4.60;;;3.83;;
9948;SDS011;5013;51.840;8.276;2022-08-19T11:09:20;5.45;;;4.35;;
9948;SDS011;5013;51.840;8.276;2022-08-19T11:11:49;6.88;;;4.82;;
9948;SDS011;5013;51.840;8.276;2022-08-19T11:14:16;4.75;;;4.35;;
9948;SDS011;5013;51.840;8.276;2022-08-19T11:16:46;4.10;;;3.78;;
9948;SDS011;5013;51.840;8.276;2022-08-19T11:19:14;4.40;;;4.10;;
9948;SDS011;5013;51.840;8.276;2022-08-19T11:21:42;4.00;;;3.70;;
9948;SDS011;5013;51.840;8.276;2022-08-19T11:24:13;5.18;;;4.25;;
9948;SDS011;5013;51.840;8.276;2022-08-19T11:26:44;3.72;;;3.45;;
9948;SDS011;5013;51.840;8.276;2022-08-19T11:29:11;5.13;;;3.95;;
9948;SDS011;5013;51.840;8.276;2022-08-19T11:31:38;4.50;;;4.15;;
9948;SDS011;5013;51.840;8.276;2022-08-19T11:34:07;5.45;;;3.80;;
9948;SDS011;5013;51.840;8.276;2022-08-19T11:36:34;4.40;;;3.30;;
9948;SDS011;5013;51.840;8.276;2022-08-19T11:39:04;3.85;;;3.60;;
9948;SDS011;5013;51.840;8.276;2022-08-19T11:41:31;3.83;;;3.53;;
9948;SDS011;5013;51.840;8.276;2022-08-19T11:43:57;4.20;;;3.90;;
9948;SDS011;5013;51.840;8.276;2022-08-19T11:46:23;7.78;;;3.85;;
9948;SDS011;5013;51.840;8.276;2022-08-19T11:48:52;3.65;;;3.35;;
9948;SDS011;5013;51.840;8.276;2022-08-19T11:51:21;3.75;;;3.33;;
9948;SDS011;5013;51.840;8.276;2022-08-19T11:53:49;4.40;;;4.00;;
9948;SDS011;5013;51.840;8.276;2022-08-19T11:56:16;3.70;;;3.10;;
9948;SDS011;5013;51.840;8.276;2022-08-19T11:59:01;4.50;;;3.47;;
9948;SDS011;5013;51.840;8.276;2022-08-19T12:01:27;3.60;;;2.85;;
9948;SDS011;5013;51.840;8.276;2022-08-19T12:03:54;5.80;;;3.58;;
9948;SDS011;5013;51.840;8.276;2022-08-19T12:06:24;3.33;;;3.00;;
9948;SDS011;5013;51.840;8.276;2022-08-19T12:08:59;4.20;;;3.28;;
9948;SDS011;5013;51.840;8.276;2022-08-19T12:11:27;3.90;;;3.00;;
9948;SDS011;5013;51.840;8.276;2022-08-19T12:13:53;3.38;;;3.28;;
9948;SDS011;5013;51.840;8.276;2022-08-19T12:16:21;4.90;;;3.10;;
9948;SDS011;5013;51.840;8.276;2022-08-19T12:18:49;3.10;;;3.00;;
9948;SDS011;5013;51.840;8.276;2022-08-19T12:21:19;4.68;;;3.42;;
9948;SDS011;5013;51.840;8.276;2022-08-19T12:23:48;3.17;;;3.03;;
9948;SDS011;5013;51.840;8.276;2022-08-19T12:26:14;3.70;;;3.40;;
9948;SDS011;5013;51.840;8.276;2022-08-19T12:28:41;3.33;;;3.15;;
9948;SDS011;5013;51.840;8.276;2022-08-19T12:31:07;3.70;;;3.40;;
9948;SDS011;5013;51.840;8.276;2022-08-19T12:33:37;5.43;;;4.00;;
9948;SDS011;5013;51.840;8.276;2022-08-19T12:36:04;3.47;;;3.20;;
9948;SDS011;5013;51.840;8.276;2022-08-19T12:38:32;3.33;;;3.00;;
9948;SDS011;5013;51.840;8.276;2022-08-19T12:40:59;3.50;;;3.30;;
9948;SDS011;5013;51.840;8.276;2022-08-19T12:43:27;3.55;;;3.00;;
9948;SDS011;5013;51.840;8.276;2022-08-19T12:45:55;3.28;;;3.08;;
9948;SDS011;5013;51.840;8.276;2022-08-19T12:48:20;3.75;;;3.30;;
9948;SDS011;5013;51.840;8.276;2022-08-19T12:50:46;3.33;;;3.13;;
9948;SDS011;5013;51.840;8.276;2022-08-19T12:53:12;3.13;;;2.85;;
9948;SDS011;5013;51.840;8.276;2022-08-19T12:55:38;2.75;;;2.65;;
9948;SDS011;5013;51.840;8.276;2022-08-19T12:58:04;3.70;;;3.40;;
9948;SDS011;5013;51.840;8.276;2022-08-19T13:00:30;3.53;;;3.38;;
9948;SDS011;5013;51.840;8.276;2022-08-19T13:02:57;5.38;;;3.08;;
9948;SDS011;5013;51.840;8.276;2022-08-19T13:05:25;3.50;;;3.15;;
9948;SDS011;5013;51.840;8.276;2022-08-19T13:07:54;3.47;;;3.22;;
9948;SDS011;5013;51.840;8.276;2022-08-19T13:10:21;7.82;;;3.75;;
9948;SDS011;5013;51.840;8.276;2022-08-19T13:12:50;3.70;;;3.28;;
9948;SDS011;5013;51.840;8.276;2022-08-19T13:15:17;3.15;;;2.88;;
9948;SDS011;5013;51.840;8.276;2022-08-19T13:17:44;3.20;;;3.10;;
9948;SDS011;5013;51.840;8.276;2022-08-19T13:20:12;3.40;;;3.03;;
9948;SDS011;5013;51.840;8.276;2022-08-19T13:22:38;3.28;;;3.08;;
9948;SDS011;5013;51.840;8.276;2022-08-19T13:25:04;7.85;;;3.20;;
9948;SDS011;5013;51.840;8.276;2022-08-19T13:27:31;3.70;;;3.13;;
9948;SDS011;5013;51.840;8.276;2022-08-19T13:29:57;3.40;;;3.20;;
9948;SDS011;5013;51.840;8.276;2022-08-19T13:32:41;3.10;;;3.00;;
9948;SDS011;5013;51.840;8.276;2022-08-19T13:35:25;3.95;;;3.20;;
9948;SDS011;5013;51.840;8.276;2022-08-19T13:37:51;4.05;;;3.13;;
9948;SDS011;5013;51.840;8.276;2022-08-19T13:40:21;5.95;;;3.28;;
9948;SDS011;5013;51.840;8.276;2022-08-19T13:42:50;4.50;;;3.08;;
9948;SDS011;5013;51.840;8.276;2022-08-19T13:45:17;3.58;;;2.88;;
9948;SDS011;5013;51.840;8.276;2022-08-19T13:47:46;3.35;;;3.08;;
9948;SDS011;5013;51.840;8.276;2022-08-19T13:50:17;3.33;;;3.03;;
9948;SDS011;5013;51.840;8.276;2022-08-19T13:52:45;3.42;;;3.22;;
9948;SDS011;5013;51.840;8.276;2022-08-19T13:55:12;3.70;;;3.38;;
9948;SDS011;5013;51.840;8.276;2022-08-19T13:57:38;3.38;;;3.17;;
9948;SDS011;5013;51.840;8.276;2022-08-19T14:00:06;4.68;;;3.28;;
9948;SDS011;5013;51.840;8.276;2022-08-19T14:02:35;3.70;;;3.45;;
9948;SDS011;5013;51.840;8.276;2022-08-19T14:05:02;3.88;;;3.60;;
9948;SDS011;5013;51.840;8.276;2022-08-19T14:07:29;11.13;;;3.28;;
9948;SDS011;5013;51.840;8.276;2022-08-19T14:09:55;5.40;;;3.10;;
9948;SDS011;5013;51.840;8.276;2022-08-19T14:12:21;3.35;;;3.05;;
9948;SDS011;5013;51.840;8.276;2022-08-19T14:14:47;3.55;;;3.30;;
9948;SDS011;5013;51.840;8.276;2022-08-19T14:17:13;3.28;;;3.08;;
9948;SDS011;5013;51.840;8.276;2022-08-19T14:19:40;3.22;;;3.08;;
9948;SDS011;5013;51.840;8.276;2022-08-19T14:22:06;3.60;;;3.30;;
9948;SDS011;5013;51.840;8.276;2022-08-19T14:24:32;3.38;;;3.10;;
9948;SDS011;5013;51.840;8.276;2022-08-19T14:26:58;3.40;;;3.30;;
9948;SDS011;5013;51.840;8.276;2022-08-19T14:29:24;3.75;;;3.25;;
9948;SDS011;5013;51.840;8.276;2022-08-19T14:31:50;3.67;;;3.47;;
9948;SDS011;5013;51.840;8.276;2022-08-19T14:34:16;3.65;;;3.45;;
9948;SDS011;5013;51.840;8.276;2022-08-19T14:36:41;3.70;;;3.47;;
9948;SDS011;5013;51.840;8.276;2022-08-19T14:39:07;7.10;;;4.07;;
9948;SDS011;5013;51.840;8.276;2022-08-19T14:41:35;4.20;;;3.55;;
9948;SDS011;5013;51.840;8.276;2022-08-19T14:44:01;3.83;;;3.60;;
9948;SDS011;5013;51.840;8.276;2022-08-19T14:46:27;4.05;;;3.63;;
9948;SDS011;5013;51.840;8.276;2022-08-19T14:48:54;3.70;;;2.92;;
9948;SDS011;5013;51.840;8.276;2022-08-19T14:51:21;4.00;;;3.72;;
9948;SDS011;5013;51.840;8.276;2022-08-19T14:53:48;16.70;;;4.35;;
9948;SDS011;5013;51.840;8.276;2022-08-19T14:56:17;4.22;;;4.03;;
9948;SDS011;5013;51.840;8.276;2022-08-19T14:58:46;4.25;;;3.95;;
9948;SDS011;5013;51.840;8.276;2022-08-19T15:01:12;4.78;;;4.38;;
9948;SDS011;5013;51.840;8.276;2022-08-19T15:03:39;6.07;;;4.65;;
9948;SDS011;5013;51.840;8.276;2022-08-19T15:06:08;5.22;;;4.75;;
9948;SDS011;5013;51.840;8.276;2022-08-19T15:11:20;4.68;;;3.90;;
9948;SDS011;5013;51.840;8.276;2022-08-19T15:13:48;4.45;;;4.15;;
9948;SDS011;5013;51.840;8.276;2022-08-19T15:16:13;6.03;;;4.55;;
9948;SDS011;5013;51.840;8.276;2022-08-19T15:18:41;4.60;;;4.30;;
9948;SDS011;5013;51.840;8.276;2022-08-19T15:21:13;4.60;;;4.38;;
9948;SDS011;5013;51.840;8.276;2022-08-19T15:23:43;4.25;;;3.90;;
9948;SDS011;5013;51.840;8.276;2022-08-19T15:26:10;4.40;;;4.15;;
9948;SDS011;5013;51.840;8.276;2022-08-19T15:28:36;4.50;;;4.20;;